sensor_id;sensor_type;location;lat;lon;timestamp;temperature;humidity
22112;DHT22;11222;50.872;4.312;2023-02-01T00:00:33;7.40;99.90
22112;DHT22;11222;50.872;4.312;2023-02-01T00:03:00;7.50;99.90
22112;DHT22;11222;50.872;4.312;2023-02-01T00:05:26;7.50;99.90
22112;DHT22;11222;50.872;4.312;2023-02-01T00:07:51;7.50;99.90
22112;DHT22;11222;50.872;4.312;2023-02-01T00:10:17;7.50;99.90
22112;DHT22;11222;50.872;4.312;2023-02-01T00:12:43;7.50;99.90
22112;DHT22;11222;50.872;4.312;2023-02-01T00:15:09;7.50;99.90
22112;DHT22;11222;50.872;4.312;2023-02-01T00:17:35;7.50;99.90
22112;DHT22;11222;50.872;4.312;2023-02-01T00:20:01;7.40;99.90
22112;DHT22;11222;50.872;4.312;2023-02-01T00:22:27;7.40;99.90
22112;DHT22;11222;50.872;4.312;2023-02-01T00:24:53;7.50;99.90
22112;DHT22;11222;50.872;4.312;2023-02-01T00:27:19;7.50;99.90
22112;DHT22;11222;50.872;4.312;2023-02-01T00:29:46;7.60;99.90
22112;DHT22;11222;50.872;4.312;2023-02-01T00:32:12;7.50;99.90
22112;DHT22;11222;50.872;4.312;2023-02-01T00:34:38;7.40;99.90
22112;DHT22;11222;50.872;4.312;2023-02-01T00:37:04;7.40;99.90
22112;DHT22;11222;50.872;4.312;2023-02-01T00:39:30;7.50;99.90
22112;DHT22;11222;50.872;4.312;2023-02-01T00:41:55;7.50;99.90
22112;DHT22;11222;50.872;4.312;2023-02-01T00:44:21;7.50;99.90
22112;DHT22;11222;50.872;4.312;2023-02-01T00:46:47;7.50;99.90
22112;DHT22;11222;50.872;4.312;2023-02-01T00:49:12;7.50;99.90
22112;DHT22;11222;50.872;4.312;2023-02-01T00:51:38;7.50;99.90
22112;DHT22;11222;50.872;4.312;2023-02-01T00:54:04;7.50;99.90
22112;DHT22;11222;50.872;4.312;2023-02-01T00:56:30;7.50;99.90
22112;DHT22;11222;50.872;4.312;2023-02-01T00:58:56;7.50;99.90
22112;DHT22;11222;50.872;4.312;2023-02-01T01:01:24;7.50;99.90
22112;DHT22;11222;50.872;4.312;2023-02-01T01:03:55;7.50;99.90
22112;DHT22;11222;50.872;4.312;2023-02-01T01:06:28;7.50;99.90
22112;DHT22;11222;50.872;4.312;2023-02-01T01:08:55;7.50;99.90
22112;DHT22;11222;50.872;4.312;2023-02-01T01:11:27;7.50;99.90
22112;DHT22;11222;50.872;4.312;2023-02-01T01:13:54;7.50;99.90
22112;DHT22;11222;50.872;4.312;2023-02-01T01:16:21;7.50;99.90
22112;DHT22;11222;50.872;4.312;2023-02-01T01:18:48;7.40;99.90
22112;DHT22;11222;50.872;4.312;2023-02-01T01:21:15;7.50;99.90
22112;DHT22;11222;50.872;4.312;2023-02-01T01:23:41;7.40;99.90
22112;DHT22;11222;50.872;4.312;2023-02-01T01:26:10;7.40;99.90
22112;DHT22;11222;50.872;4.312;2023-02-01T01:28:36;7.40;99.90
22112;DHT22;11222;50.872;4.312;2023-02-01T01:31:02;7.30;99.90
22112;DHT22;11222;50.872;4.312;2023-02-01T01:33:28;7.30;99.90
22112;DHT22;11222;50.872;4.312;2023-02-01T01:35:53;7.30;99.90
22112;DHT22;11222;50.872;4.312;2023-02-01T01:38:19;7.30;99.90
22112;DHT22;11222;50.872;4.312;2023-02-01T01:40:46;7.30;99.90
22112;DHT22;11222;50.872;4.312;2023-02-01T01:43:18;7.30;99.90
22112;DHT22;11222;50.872;4.312;2023-02-01T01:45:45;7.30;99.90
22112;DHT22;11222;50.872;4.312;2023-02-01T01:48:27;7.20;99.90
22112;DHT22;11222;50.872;4.312;2023-02-01T01:51:05;7.30;99.90
22112;DHT22;11222;50.872;4.312;2023-02-01T01:53:40;7.30;99.90
22112;DHT22;11222;50.872;4.312;2023-02-01T01:56:07;7.20;99.90
22112;DHT22;11222;50.872;4.312;2023-02-01T01:58:34;7.30;99.90
22112;DHT22;11222;50.872;4.312;2023-02-01T02:01:00;7.30;99.90
22112;DHT22;11222;50.872;4.312;2023-02-01T02:03:34;7.30;99.90
22112;DHT22;11222;50.872;4.312;2023-02-01T02:06:02;7.20;99.90
22112;DHT22;11222;50.872;4.312;2023-02-01T02:08:31;7.20;99.90
22112;DHT22;11222;50.872;4.312;2023-02-01T02:10:57;7.10;99.90
22112;DHT22;11222;50.872;4.312;2023-02-01T02:13:41;7.10;99.90
22112;DHT22;11222;50.872;4.312;2023-02-01T02:24:49;6.90;99.90
22112;DHT22;11222;50.872;4.312;2023-02-01T02:30:35;6.90;99.90
22112;DHT22;11222;50.872;4.312;2023-02-01T02:36:17;7.10;99.90
22112;DHT22;11222;50.872;4.312;2023-02-01T02:38:47;7.10;99.90
22112;DHT22;11222;50.872;4.312;2023-02-01T02:41:31;7.10;99.90
22112;DHT22;11222;50.872;4.312;2023-02-01T02:47:28;7.10;99.90
22112;DHT22;11222;50.872;4.312;2023-02-01T02:52:53;7.00;99.90
22112;DHT22;11222;50.872;4.312;2023-02-01T02:55:40;6.90;99.90
22112;DHT22;11222;50.872;4.312;2023-02-01T02:58:07;6.90;99.90
22112;DHT22;11222;50.872;4.312;2023-02-01T03:00:53;6.90;99.90
22112;DHT22;11222;50.872;4.312;2023-02-01T03:03:39;6.90;99.90
22112;DHT22;11222;50.872;4.312;2023-02-01T03:06:24;6.80;99.90
22112;DHT22;11222;50.872;4.312;2023-02-01T03:08:54;6.80;99.90
22112;DHT22;11222;50.872;4.312;2023-02-01T03:11:23;6.80;99.90
22112;DHT22;11222;50.872;4.312;2023-02-01T03:16:22;6.80;99.90
22112;DHT22;11222;50.872;4.312;2023-02-01T03:19:09;6.70;99.90
22112;DHT22;11222;50.872;4.312;2023-02-01T03:22:11;6.80;99.90
22112;DHT22;11222;50.872;4.312;2023-02-01T03:24:41;6.80;99.90
22112;DHT22;11222;50.872;4.312;2023-02-01T03:29:44;6.80;99.90
22112;DHT22;11222;50.872;4.312;2023-02-01T03:32:11;6.70;99.90
22112;DHT22;11222;50.872;4.312;2023-02-01T03:34:38;6.70;99.90
22112;DHT22;11222;50.872;4.312;2023-02-01T03:37:10;6.70;99.90
22112;DHT22;11222;50.872;4.312;2023-02-01T03:39:42;6.60;99.90
22112;DHT22;11222;50.872;4.312;2023-02-01T03:42:21;6.60;99.90
22112;DHT22;11222;50.872;4.312;2023-02-01T03:45:13;6.60;99.90
22112;DHT22;11222;50.872;4.312;2023-02-01T03:47:47;6.70;99.90
22112;DHT22;11222;50.872;4.312;2023-02-01T03:50:21;6.70;99.90
22112;DHT22;11222;50.872;4.312;2023-02-01T03:52:56;6.70;99.90
22112;DHT22;11222;50.872;4.312;2023-02-01T03:55:25;6.60;99.90
22112;DHT22;11222;50.872;4.312;2023-02-01T04:00:33;6.60;99.90
22112;DHT22;11222;50.872;4.312;2023-02-01T04:02:59;6.50;99.90
22112;DHT22;11222;50.872;4.312;2023-02-01T04:05:25;6.50;99.90
22112;DHT22;11222;50.872;4.312;2023-02-01T04:07:51;6.40;99.90
22112;DHT22;11222;50.872;4.312;2023-02-01T04:10:16;6.40;99.90
22112;DHT22;11222;50.872;4.312;2023-02-01T04:12:42;6.30;99.90
22112;DHT22;11222;50.872;4.312;2023-02-01T04:15:08;6.30;99.90
22112;DHT22;11222;50.872;4.312;2023-02-01T04:17:34;6.30;99.90
22112;DHT22;11222;50.872;4.312;2023-02-01T04:20:00;6.30;99.90
22112;DHT22;11222;50.872;4.312;2023-02-01T04:22:25;6.30;99.90
22112;DHT22;11222;50.872;4.312;2023-02-01T04:24:51;6.30;99.90
22112;DHT22;11222;50.872;4.312;2023-02-01T04:27:17;6.20;99.90
22112;DHT22;11222;50.872;4.312;2023-02-01T04:29:42;6.20;99.90
22112;DHT22;11222;50.872;4.312;2023-02-01T04:32:10;6.20;99.90
22112;DHT22;11222;50.872;4.312;2023-02-01T04:34:36;6.10;99.90
22112;DHT22;11222;50.872;4.312;2023-02-01T04:37:02;6.10;99.90
22112;DHT22;11222;50.872;4.312;2023-02-01T04:39:28;6.10;99.90
22112;DHT22;11222;50.872;4.312;2023-02-01T04:41:53;6.10;99.90
22112;DHT22;11222;50.872;4.312;2023-02-01T04:44:20;6.10;99.90
22112;DHT22;11222;50.872;4.312;2023-02-01T04:46:47;6.00;99.90
22112;DHT22;11222;50.872;4.312;2023-02-01T04:49:14;5.90;99.90
22112;DHT22;11222;50.872;4.312;2023-02-01T04:51:41;5.90;99.90
22112;DHT22;11222;50.872;4.312;2023-02-01T04:54:07;5.90;99.90
22112;DHT22;11222;50.872;4.312;2023-02-01T04:56:34;5.90;99.90
22112;DHT22;11222;50.872;4.312;2023-02-01T04:59:02;5.90;99.90
22112;DHT22;11222;50.872;4.312;2023-02-01T05:01:28;5.90;99.90
22112;DHT22;11222;50.872;4.312;2023-02-01T05:03:54;5.90;99.90
22112;DHT22;11222;50.872;4.312;2023-02-01T05:06:21;5.90;99.90
22112;DHT22;11222;50.872;4.312;2023-02-01T05:08:47;5.90;99.90
22112;DHT22;11222;50.872;4.312;2023-02-01T05:11:12;5.80;99.90
22112;DHT22;11222;50.872;4.312;2023-02-01T05:13:57;5.80;99.90
22112;DHT22;11222;50.872;4.312;2023-02-01T05:16:23;5.80;99.90
22112;DHT22;11222;50.872;4.312;2023-02-01T05:18:49;5.70;99.90
22112;DHT22;11222;50.872;4.312;2023-02-01T05:21:14;5.70;99.90
22112;DHT22;11222;50.872;4.312;2023-02-01T05:23:40;5.70;99.90
22112;DHT22;11222;50.872;4.312;2023-02-01T05:26:24;5.70;99.90
22112;DHT22;11222;50.872;4.312;2023-02-01T05:28:50;5.70;99.90
22112;DHT22;11222;50.872;4.312;2023-02-01T05:31:16;5.70;99.90
22112;DHT22;11222;50.872;4.312;2023-02-01T05:33:42;5.70;99.90
22112;DHT22;11222;50.872;4.312;2023-02-01T05:36:08;5.60;99.90
22112;DHT22;11222;50.872;4.312;2023-02-01T05:38:33;5.60;99.90
22112;DHT22;11222;50.872;4.312;2023-02-01T05:40:59;5.70;99.90
22112;DHT22;11222;50.872;4.312;2023-02-01T05:43:25;5.70;99.90
22112;DHT22;11222;50.872;4.312;2023-02-01T05:45:53;5.70;99.90
22112;DHT22;11222;50.872;4.312;2023-02-01T05:48:19;5.60;99.90
22112;DHT22;11222;50.872;4.312;2023-02-01T05:50:45;5.60;99.90
22112;DHT22;11222;50.872;4.312;2023-02-01T05:53:11;5.60;99.90
22112;DHT22;11222;50.872;4.312;2023-02-01T05:55:38;5.70;99.90
22112;DHT22;11222;50.872;4.312;2023-02-01T05:58:04;5.60;99.90
22112;DHT22;11222;50.872;4.312;2023-02-01T06:00:30;5.60;99.90
22112;DHT22;11222;50.872;4.312;2023-02-01T06:02:56;5.60;99.90
22112;DHT22;11222;50.872;4.312;2023-02-01T06:05:22;5.60;99.90
22112;DHT22;11222;50.872;4.312;2023-02-01T06:07:48;5.50;99.90
22112;DHT22;11222;50.872;4.312;2023-02-01T06:10:18;5.50;99.90
22112;DHT22;11222;50.872;4.312;2023-02-01T06:12:44;5.50;99.90
22112;DHT22;11222;50.872;4.312;2023-02-01T06:15:11;5.50;99.90
22112;DHT22;11222;50.872;4.312;2023-02-01T06:17:37;5.50;99.90
22112;DHT22;11222;50.872;4.312;2023-02-01T06:20:04;5.50;99.90
22112;DHT22;11222;50.872;4.312;2023-02-01T06:22:32;5.50;99.90
22112;DHT22;11222;50.872;4.312;2023-02-01T06:24:57;5.50;99.90
22112;DHT22;11222;50.872;4.312;2023-02-01T06:27:24;5.50;99.90
22112;DHT22;11222;50.872;4.312;2023-02-01T06:29:50;5.50;99.90
22112;DHT22;11222;50.872;4.312;2023-02-01T06:32:16;5.50;99.90
22112;DHT22;11222;50.872;4.312;2023-02-01T06:34:43;5.50;99.90
22112;DHT22;11222;50.872;4.312;2023-02-01T06:37:09;5.50;99.90
22112;DHT22;11222;50.872;4.312;2023-02-01T06:39:36;5.50;99.90
22112;DHT22;11222;50.872;4.312;2023-02-01T06:42:02;5.50;99.90
22112;DHT22;11222;50.872;4.312;2023-02-01T06:44:28;5.50;99.90
22112;DHT22;11222;50.872;4.312;2023-02-01T06:46:54;5.50;99.90
22112;DHT22;11222;50.872;4.312;2023-02-01T06:49:20;5.50;99.90
22112;DHT22;11222;50.872;4.312;2023-02-01T06:51:46;5.50;99.90
22112;DHT22;11222;50.872;4.312;2023-02-01T06:54:12;5.50;99.90
22112;DHT22;11222;50.872;4.312;2023-02-01T06:56:37;5.60;99.90
22112;DHT22;11222;50.872;4.312;2023-02-01T06:59:07;5.60;99.90
22112;DHT22;11222;50.872;4.312;2023-02-01T07:01:34;5.60;99.90
22112;DHT22;11222;50.872;4.312;2023-02-01T07:04:05;5.60;99.90
22112;DHT22;11222;50.872;4.312;2023-02-01T07:06:31;5.60;99.90
22112;DHT22;11222;50.872;4.312;2023-02-01T07:08:57;5.60;99.90
22112;DHT22;11222;50.872;4.312;2023-02-01T07:11:23;5.60;99.90
22112;DHT22;11222;50.872;4.312;2023-02-01T07:13:49;5.60;99.90
22112;DHT22;11222;50.872;4.312;2023-02-01T07:16:17;5.60;99.90
22112;DHT22;11222;50.872;4.312;2023-02-01T07:18:43;5.60;99.90
22112;DHT22;11222;50.872;4.312;2023-02-01T07:21:09;5.60;99.90
22112;DHT22;11222;50.872;4.312;2023-02-01T07:23:35;5.60;99.90
22112;DHT22;11222;50.872;4.312;2023-02-01T07:26:03;5.60;99.90
22112;DHT22;11222;50.872;4.312;2023-02-01T07:28:31;5.60;99.90
22112;DHT22;11222;50.872;4.312;2023-02-01T07:31:08;5.70;99.90
22112;DHT22;11222;50.872;4.312;2023-02-01T07:33:34;5.70;99.90
22112;DHT22;11222;50.872;4.312;2023-02-01T07:36:03;5.70;99.90
22112;DHT22;11222;50.872;4.312;2023-02-01T07:38:28;5.70;99.90
22112;DHT22;11222;50.872;4.312;2023-02-01T07:41:02;5.80;99.90
22112;DHT22;11222;50.872;4.312;2023-02-01T07:43:28;5.90;99.90
22112;DHT22;11222;50.872;4.312;2023-02-01T07:45:55;6.00;99.90
22112;DHT22;11222;50.872;4.312;2023-02-01T07:48:22;6.10;99.90
22112;DHT22;11222;50.872;4.312;2023-02-01T07:50:48;6.10;99.90
22112;DHT22;11222;50.872;4.312;2023-02-01T07:53:21;6.00;99.90
22112;DHT22;11222;50.872;4.312;2023-02-01T07:55:47;6.00;99.90
22112;DHT22;11222;50.872;4.312;2023-02-01T07:58:13;6.00;99.90
22112;DHT22;11222;50.872;4.312;2023-02-01T08:00:39;5.90;99.90
22112;DHT22;11222;50.872;4.312;2023-02-01T08:03:23;5.90;99.90
22112;DHT22;11222;50.872;4.312;2023-02-01T08:05:54;5.90;99.90
22112;DHT22;11222;50.872;4.312;2023-02-01T08:08:20;6.00;99.90
22112;DHT22;11222;50.872;4.312;2023-02-01T08:10:45;6.00;99.90
22112;DHT22;11222;50.872;4.312;2023-02-01T08:13:11;6.00;99.90
22112;DHT22;11222;50.872;4.312;2023-02-01T08:15:37;6.10;99.90
22112;DHT22;11222;50.872;4.312;2023-02-01T08:18:02;6.00;99.90
22112;DHT22;11222;50.872;4.312;2023-02-01T08:20:28;6.10;99.90
22112;DHT22;11222;50.872;4.312;2023-02-01T08:22:54;6.10;99.90
22112;DHT22;11222;50.872;4.312;2023-02-01T08:25:20;6.10;99.90
22112;DHT22;11222;50.872;4.312;2023-02-01T08:27:49;6.10;99.90
22112;DHT22;11222;50.872;4.312;2023-02-01T08:30:15;6.10;99.90
22112;DHT22;11222;50.872;4.312;2023-02-01T08:32:41;6.10;99.90
22112;DHT22;11222;50.872;4.312;2023-02-01T08:35:07;6.10;99.90
22112;DHT22;11222;50.872;4.312;2023-02-01T08:37:33;6.10;99.90
22112;DHT22;11222;50.872;4.312;2023-02-01T08:39:59;6.20;99.90
22112;DHT22;11222;50.872;4.312;2023-02-01T08:42:25;6.20;99.90
22112;DHT22;11222;50.872;4.312;2023-02-01T08:45:09;6.30;99.90
22112;DHT22;11222;50.872;4.312;2023-02-01T08:47:35;6.30;99.90
22112;DHT22;11222;50.872;4.312;2023-02-01T08:50:01;6.30;99.90
22112;DHT22;11222;50.872;4.312;2023-02-01T08:52:27;6.40;99.90
22112;DHT22;11222;50.872;4.312;2023-02-01T08:54:53;6.50;99.90
22112;DHT22;11222;50.872;4.312;2023-02-01T08:57:18;6.50;99.90
22112;DHT22;11222;50.872;4.312;2023-02-01T08:59:44;6.60;99.90
22112;DHT22;11222;50.872;4.312;2023-02-01T09:02:14;6.60;99.90
22112;DHT22;11222;50.872;4.312;2023-02-01T09:04:41;6.70;99.90
22112;DHT22;11222;50.872;4.312;2023-02-01T09:07:07;6.70;99.90
22112;DHT22;11222;50.872;4.312;2023-02-01T09:09:33;6.70;99.90
22112;DHT22;11222;50.872;4.312;2023-02-01T09:11:59;6.70;99.90
22112;DHT22;11222;50.872;4.312;2023-02-01T09:14:24;6.80;99.90
22112;DHT22;11222;50.872;4.312;2023-02-01T09:16:50;6.80;99.90
22112;DHT22;11222;50.872;4.312;2023-02-01T09:19:16;6.80;99.90
22112;DHT22;11222;50.872;4.312;2023-02-01T09:21:41;6.80;99.90
22112;DHT22;11222;50.872;4.312;2023-02-01T09:24:10;6.90;99.90
22112;DHT22;11222;50.872;4.312;2023-02-01T09:26:36;7.00;99.90
22112;DHT22;11222;50.872;4.312;2023-02-01T09:29:01;7.00;99.90
22112;DHT22;11222;50.872;4.312;2023-02-01T09:31:29;6.90;99.90
22112;DHT22;11222;50.872;4.312;2023-02-01T09:33:55;7.00;99.90
22112;DHT22;11222;50.872;4.312;2023-02-01T09:36:21;7.00;99.90
22112;DHT22;11222;50.872;4.312;2023-02-01T09:38:47;7.00;99.90
22112;DHT22;11222;50.872;4.312;2023-02-01T09:46:56;7.00;99.90
22112;DHT22;11222;50.872;4.312;2023-02-01T09:49:27;7.10;99.90
22112;DHT22;11222;50.872;4.312;2023-02-01T09:51:55;7.10;99.90
22112;DHT22;11222;50.872;4.312;2023-02-01T09:54:54;7.20;99.90
22112;DHT22;11222;50.872;4.312;2023-02-01T09:57:28;7.20;99.90
22112;DHT22;11222;50.872;4.312;2023-02-01T10:00:13;7.20;99.90
22112;DHT22;11222;50.872;4.312;2023-02-01T10:02:41;7.30;99.90
22112;DHT22;11222;50.872;4.312;2023-02-01T10:05:18;7.30;99.90
22112;DHT22;11222;50.872;4.312;2023-02-01T10:07:56;7.30;99.90
22112;DHT22;11222;50.872;4.312;2023-02-01T10:10:32;7.40;99.90
22112;DHT22;11222;50.872;4.312;2023-02-01T10:15:59;7.60;99.90
22112;DHT22;11222;50.872;4.312;2023-02-01T10:21:27;7.60;99.90
22112;DHT22;11222;50.872;4.312;2023-02-01T10:27:07;7.70;99.90
22112;DHT22;11222;50.872;4.312;2023-02-01T10:29:38;7.70;99.90
22112;DHT22;11222;50.872;4.312;2023-02-01T10:32:13;7.80;99.90
22112;DHT22;11222;50.872;4.312;2023-02-01T10:34:39;7.80;99.90
22112;DHT22;11222;50.872;4.312;2023-02-01T10:39:55;7.80;99.90
22112;DHT22;11222;50.872;4.312;2023-02-01T10:42:27;7.90;99.90
22112;DHT22;11222;50.872;4.312;2023-02-01T10:44:58;8.00;99.90
22112;DHT22;11222;50.872;4.312;2023-02-01T10:47:25;8.00;99.90
22112;DHT22;11222;50.872;4.312;2023-02-01T10:52:38;8.20;99.90
22112;DHT22;11222;50.872;4.312;2023-02-01T10:58:01;8.50;99.90
22112;DHT22;11222;50.872;4.312;2023-02-01T11:00:27;8.80;99.90
22112;DHT22;11222;50.872;4.312;2023-02-01T11:02:54;8.90;99.90
22112;DHT22;11222;50.872;4.312;2023-02-01T11:05:20;8.90;99.90
22112;DHT22;11222;50.872;4.312;2023-02-01T11:07:53;8.90;99.90
22112;DHT22;11222;50.872;4.312;2023-02-01T11:10:41;8.90;99.90
22112;DHT22;11222;50.872;4.312;2023-02-01T11:13:16;9.00;99.90
22112;DHT22;11222;50.872;4.312;2023-02-01T11:15:47;9.10;99.90
22112;DHT22;11222;50.872;4.312;2023-02-01T11:18:24;9.30;99.90
22112;DHT22;11222;50.872;4.312;2023-02-01T11:20:52;9.30;99.90
22112;DHT22;11222;50.872;4.312;2023-02-01T11:23:23;9.30;99.90
22112;DHT22;11222;50.872;4.312;2023-02-01T11:26:07;9.30;99.90
22112;DHT22;11222;50.872;4.312;2023-02-01T11:28:37;9.20;99.90
22112;DHT22;11222;50.872;4.312;2023-02-01T11:31:08;9.30;99.90
22112;DHT22;11222;50.872;4.312;2023-02-01T11:33:37;9.20;99.90
22112;DHT22;11222;50.872;4.312;2023-02-01T11:36:08;9.30;99.90
22112;DHT22;11222;50.872;4.312;2023-02-01T11:38:36;9.20;99.90
22112;DHT22;11222;50.872;4.312;2023-02-01T11:41:27;9.10;99.90
22112;DHT22;11222;50.872;4.312;2023-02-01T11:43:58;9.10;99.90
22112;DHT22;11222;50.872;4.312;2023-02-01T11:46:29;9.30;99.90
22112;DHT22;11222;50.872;4.312;2023-02-01T11:48:56;9.30;99.90
22112;DHT22;11222;50.872;4.312;2023-02-01T12:01:59;9.50;99.90
22112;DHT22;11222;50.872;4.312;2023-02-01T12:07:19;9.60;99.90
22112;DHT22;11222;50.872;4.312;2023-02-01T12:10:16;9.70;99.90
22112;DHT22;11222;50.872;4.312;2023-02-01T12:23:06;10.00;99.90
22112;DHT22;11222;50.872;4.312;2023-02-01T12:35:08;10.20;99.90
22112;DHT22;11222;50.872;4.312;2023-02-01T12:40:48;10.60;99.90
22112;DHT22;11222;50.872;4.312;2023-02-01T12:43:39;10.80;99.90
22112;DHT22;11222;50.872;4.312;2023-02-01T12:51:27;10.70;99.90
22112;DHT22;11222;50.872;4.312;2023-02-01T12:57:02;10.40;99.90
22112;DHT22;11222;50.872;4.312;2023-02-01T12:59:49;10.10;99.90
22112;DHT22;11222;50.872;4.312;2023-02-01T13:02:25;10.10;99.90
22112;DHT22;11222;50.872;4.312;2023-02-01T13:07:36;10.10;99.90
22112;DHT22;11222;50.872;4.312;2023-02-01T13:10:34;10.30;99.90
22112;DHT22;11222;50.872;4.312;2023-02-01T13:16:15;10.70;99.90
22112;DHT22;11222;50.872;4.312;2023-02-01T13:18:45;10.50;99.90
22112;DHT22;11222;50.872;4.312;2023-02-01T13:21:21;10.50;99.90
22112;DHT22;11222;50.872;4.312;2023-02-01T13:23:50;10.40;99.90
22112;DHT22;11222;50.872;4.312;2023-02-01T13:26:18;10.40;99.90
22112;DHT22;11222;50.872;4.312;2023-02-01T13:29:04;10.20;99.90
22112;DHT22;11222;50.872;4.312;2023-02-01T13:44:50;10.50;99.90
22112;DHT22;11222;50.872;4.312;2023-02-01T13:49:57;10.30;99.90
22112;DHT22;11222;50.872;4.312;2023-02-01T13:52:44;10.40;99.90
22112;DHT22;11222;50.872;4.312;2023-02-01T13:57:45;10.50;99.90
22112;DHT22;11222;50.872;4.312;2023-02-01T14:23:43;10.10;99.90
22112;DHT22;11222;50.872;4.312;2023-02-01T14:26:13;10.20;99.90
22112;DHT22;11222;50.872;4.312;2023-02-01T14:55:53;10.20;99.90
22112;DHT22;11222;50.872;4.312;2023-02-01T15:01:31;10.00;99.90
22112;DHT22;11222;50.872;4.312;2023-02-01T15:08:57;9.90;99.90
22112;DHT22;11222;50.872;4.312;2023-02-01T15:11:23;9.80;99.90
22112;DHT22;11222;50.872;4.312;2023-02-01T15:13:51;9.80;99.90
22112;DHT22;11222;50.872;4.312;2023-02-01T15:16:20;9.70;99.90
22112;DHT22;11222;50.872;4.312;2023-02-01T15:18:47;9.80;99.90
22112;DHT22;11222;50.872;4.312;2023-02-01T15:21:23;9.80;99.90
22112;DHT22;11222;50.872;4.312;2023-02-01T15:23:50;9.80;99.90
22112;DHT22;11222;50.872;4.312;2023-02-01T15:26:34;9.80;99.90
22112;DHT22;11222;50.872;4.312;2023-02-01T15:29:00;9.70;99.90
22112;DHT22;11222;50.872;4.312;2023-02-01T15:31:37;9.60;99.90
22112;DHT22;11222;50.872;4.312;2023-02-01T15:34:03;9.60;99.90
22112;DHT22;11222;50.872;4.312;2023-02-01T15:36:29;9.70;99.90
22112;DHT22;11222;50.872;4.312;2023-02-01T15:39:35;9.70;99.90
22112;DHT22;11222;50.872;4.312;2023-02-01T15:42:12;9.60;99.90
22112;DHT22;11222;50.872;4.312;2023-02-01T15:44:43;9.50;99.90
22112;DHT22;11222;50.872;4.312;2023-02-01T15:47:18;9.50;99.90
22112;DHT22;11222;50.872;4.312;2023-02-01T15:49:49;9.50;99.90
22112;DHT22;11222;50.872;4.312;2023-02-01T15:55:03;9.50;99.90
22112;DHT22;11222;50.872;4.312;2023-02-01T15:57:36;9.50;99.90
22112;DHT22;11222;50.872;4.312;2023-02-01T16:00:07;9.50;99.90
22112;DHT22;11222;50.872;4.312;2023-02-01T16:02:37;9.50;99.90
22112;DHT22;11222;50.872;4.312;2023-02-01T16:05:38;9.50;99.90
22112;DHT22;11222;50.872;4.312;2023-02-01T16:10:44;9.50;99.90
22112;DHT22;11222;50.872;4.312;2023-02-01T16:13:11;9.50;99.90
22112;DHT22;11222;50.872;4.312;2023-02-01T16:15:39;9.50;99.90
22112;DHT22;11222;50.872;4.312;2023-02-01T16:18:06;9.40;99.90
22112;DHT22;11222;50.872;4.312;2023-02-01T16:20:34;9.40;99.90
22112;DHT22;11222;50.872;4.312;2023-02-01T16:23:04;9.40;99.90
22112;DHT22;11222;50.872;4.312;2023-02-01T16:25:30;9.50;99.90
22112;DHT22;11222;50.872;4.312;2023-02-01T16:27:56;9.50;99.90
22112;DHT22;11222;50.872;4.312;2023-02-01T16:30:22;9.50;99.90
22112;DHT22;11222;50.872;4.312;2023-02-01T16:32:55;9.40;99.90
22112;DHT22;11222;50.872;4.312;2023-02-01T16:35:25;9.40;99.90
22112;DHT22;11222;50.872;4.312;2023-02-01T16:37:51;9.30;99.90
22112;DHT22;11222;50.872;4.312;2023-02-01T16:40:18;9.20;99.90
22112;DHT22;11222;50.872;4.312;2023-02-01T16:42:46;9.20;99.90
22112;DHT22;11222;50.872;4.312;2023-02-01T16:45:13;9.20;99.90
22112;DHT22;11222;50.872;4.312;2023-02-01T16:47:48;9.20;99.90
22112;DHT22;11222;50.872;4.312;2023-02-01T16:50:22;9.20;99.90
22112;DHT22;11222;50.872;4.312;2023-02-01T16:52:48;9.10;99.90
22112;DHT22;11222;50.872;4.312;2023-02-01T16:55:19;9.10;99.90
22112;DHT22;11222;50.872;4.312;2023-02-01T16:57:46;9.10;99.90
22112;DHT22;11222;50.872;4.312;2023-02-01T17:00:13;9.10;99.90
22112;DHT22;11222;50.872;4.312;2023-02-01T17:02:39;9.10;99.90
22112;DHT22;11222;50.872;4.312;2023-02-01T17:05:08;9.10;99.90
22112;DHT22;11222;50.872;4.312;2023-02-01T17:07:35;9.10;99.90
22112;DHT22;11222;50.872;4.312;2023-02-01T17:10:04;9.10;99.90
22112;DHT22;11222;50.872;4.312;2023-02-01T17:12:32;9.10;99.90
22112;DHT22;11222;50.872;4.312;2023-02-01T17:14:58;9.10;99.90
22112;DHT22;11222;50.872;4.312;2023-02-01T17:17:33;9.10;99.90
22112;DHT22;11222;50.872;4.312;2023-02-01T17:20:00;9.00;99.90
22112;DHT22;11222;50.872;4.312;2023-02-01T17:22:26;9.10;99.90
22112;DHT22;11222;50.872;4.312;2023-02-01T17:24:52;9.10;99.90
22112;DHT22;11222;50.872;4.312;2023-02-01T17:27:18;9.10;99.90
22112;DHT22;11222;50.872;4.312;2023-02-01T17:29:44;9.10;99.90
22112;DHT22;11222;50.872;4.312;2023-02-01T17:32:22;9.00;99.90
22112;DHT22;11222;50.872;4.312;2023-02-01T17:34:49;9.00;99.90
22112;DHT22;11222;50.872;4.312;2023-02-01T17:37:28;9.00;99.90
22112;DHT22;11222;50.872;4.312;2023-02-01T17:39:54;9.00;99.90
22112;DHT22;11222;50.872;4.312;2023-02-01T17:42:20;8.90;99.90
22112;DHT22;11222;50.872;4.312;2023-02-01T17:44:46;8.80;99.90
22112;DHT22;11222;50.872;4.312;2023-02-01T17:47:12;8.90;99.90
22112;DHT22;11222;50.872;4.312;2023-02-01T17:49:38;8.90;99.90
22112;DHT22;11222;50.872;4.312;2023-02-01T17:52:05;9.00;99.90
22112;DHT22;11222;50.872;4.312;2023-02-01T17:54:31;8.90;99.90
22112;DHT22;11222;50.872;4.312;2023-02-01T17:56:57;8.90;99.90
22112;DHT22;11222;50.872;4.312;2023-02-01T17:59:28;8.90;99.90
22112;DHT22;11222;50.872;4.312;2023-02-01T18:01:53;8.80;99.90
22112;DHT22;11222;50.872;4.312;2023-02-01T18:04:25;8.90;99.90
22112;DHT22;11222;50.872;4.312;2023-02-01T18:06:50;8.90;99.90
22112;DHT22;11222;50.872;4.312;2023-02-01T18:09:16;8.90;99.90
22112;DHT22;11222;50.872;4.312;2023-02-01T18:11:42;8.90;99.90
22112;DHT22;11222;50.872;4.312;2023-02-01T18:14:11;8.90;99.90
22112;DHT22;11222;50.872;4.312;2023-02-01T18:16:37;8.90;99.90
22112;DHT22;11222;50.872;4.312;2023-02-01T18:19:03;8.90;99.90
22112;DHT22;11222;50.872;4.312;2023-02-01T18:21:40;8.90;99.90
22112;DHT22;11222;50.872;4.312;2023-02-01T18:24:13;8.90;99.90
22112;DHT22;11222;50.872;4.312;2023-02-01T18:26:39;8.90;99.90
22112;DHT22;11222;50.872;4.312;2023-02-01T18:29:05;8.90;99.90
22112;DHT22;11222;50.872;4.312;2023-02-01T18:31:31;8.90;99.90
22112;DHT22;11222;50.872;4.312;2023-02-01T18:33:58;8.90;99.90
22112;DHT22;11222;50.872;4.312;2023-02-01T18:36:25;8.90;99.90
22112;DHT22;11222;50.872;4.312;2023-02-01T18:38:51;8.90;99.90
22112;DHT22;11222;50.872;4.312;2023-02-01T18:41:23;8.90;99.90
22112;DHT22;11222;50.872;4.312;2023-02-01T18:43:50;8.90;99.90
22112;DHT22;11222;50.872;4.312;2023-02-01T18:46:16;8.90;99.90
22112;DHT22;11222;50.872;4.312;2023-02-01T18:48:43;8.90;99.90
22112;DHT22;11222;50.872;4.312;2023-02-01T18:51:13;8.90;99.90
22112;DHT22;11222;50.872;4.312;2023-02-01T18:53:41;8.90;99.90
22112;DHT22;11222;50.872;4.312;2023-02-01T18:56:13;8.90;99.90
22112;DHT22;11222;50.872;4.312;2023-02-01T18:58:39;8.90;99.90
22112;DHT22;11222;50.872;4.312;2023-02-01T19:01:07;8.80;99.90
22112;DHT22;11222;50.872;4.312;2023-02-01T19:03:34;8.70;99.90